sensor_id;sensor_type;location;lat;lon;timestamp;pressure;altitude;pressure_sealevel;temperature;humidity
14089;BME280;7120;52.890;6.040;2023-03-22T00:00:44;100762.28;;;9.78;100.00
14089;BME280;7120;52.890;6.040;2023-03-22T00:03:10;100753.97;;;9.70;100.00
14089;BME280;7120;52.890;6.040;2023-03-22T00:05:35;100749.00;;;9.72;100.00
14089;BME280;7120;52.890;6.040;2023-03-22T00:08:01;100750.13;;;9.71;100.00
14089;BME280;7120;52.890;6.040;2023-03-22T00:10:30;100738.34;;;9.89;100.00
14089;BME280;7120;52.890;6.040;2023-03-22T00:12:56;100746.25;;;9.90;100.00
14089;BME280;7120;52.890;6.040;2023-03-22T00:15:21;100741.09;;;9.89;100.00
14089;BME280;7120;52.890;6.040;2023-03-22T00:17:47;100732.97;;;9.84;100.00
14089;BME280;7120;52.890;6.040;2023-03-22T00:20:14;100724.97;;;9.74;100.00
14089;BME280;7120;52.890;6.040;2023-03-22T00:22:42;100730.75;;;9.86;100.00
14089;BME280;7120;52.890;6.040;2023-03-22T00:25:08;100736.03;;;9.96;100.00
14089;BME280;7120;52.890;6.040;2023-03-22T00:27:34;100720.84;;;9.90;100.00
14089;BME280;7120;52.890;6.040;2023-03-22T00:29:59;100730.22;;;9.84;100.00
14089;BME280;7120;52.890;6.040;2023-03-22T00:32:25;100729.47;;;9.97;100.00
14089;BME280;7120;52.890;6.040;2023-03-22T00:34:50;100709.97;;;9.71;100.00
14089;BME280;7120;52.890;6.040;2023-03-22T00:37:16;100725.19;;;9.91;100.00
14089;BME280;7120;52.890;6.040;2023-03-22T00:39:42;100716.53;;;10.03;100.00
14089;BME280;7120;52.890;6.040;2023-03-22T00:42:07;100715.09;;;10.05;100.00
14089;BME280;7120;52.890;6.040;2023-03-22T00:44:33;100715.00;;;9.97;100.00
14089;BME280;7120;52.890;6.040;2023-03-22T00:46:58;100714.78;;;10.07;100.00
14089;BME280;7120;52.890;6.040;2023-03-22T00:49:23;100715.91;;;10.06;99.44
14089;BME280;7120;52.890;6.040;2023-03-22T00:51:52;100708.22;;;10.22;98.81
14089;BME280;7120;52.890;6.040;2023-03-22T00:54:18;100716.31;;;10.13;98.52
14089;BME280;7120;52.890;6.040;2023-03-22T00:56:43;100709.53;;;10.10;98.64
14089;BME280;7120;52.890;6.040;2023-03-22T00:59:14;100702.06;;;10.16;98.55
14089;BME280;7120;52.890;6.040;2023-03-22T01:01:41;100696.06;;;10.14;98.82
14089;BME280;7120;52.890;6.040;2023-03-22T01:04:07;100701.31;;;10.29;97.97
14089;BME280;7120;52.890;6.040;2023-03-22T01:06:33;100700.16;;;10.16;97.89
14089;BME280;7120;52.890;6.040;2023-03-22T01:08:58;100694.06;;;10.19;98.46
14089;BME280;7120;52.890;6.040;2023-03-22T01:11:24;100676.84;;;10.05;99.33
14089;BME280;7120;52.890;6.040;2023-03-22T01:13:50;100686.38;;;10.08;99.44
14089;BME280;7120;52.890;6.040;2023-03-22T01:16:16;100682.13;;;10.02;99.53
14089;BME280;7120;52.890;6.040;2023-03-22T01:18:42;100679.66;;;10.00;99.68
14089;BME280;7120;52.890;6.040;2023-03-22T01:21:08;100670.78;;;9.95;99.92
14089;BME280;7120;52.890;6.040;2023-03-22T01:23:35;100678.44;;;9.93;100.00
14089;BME280;7120;52.890;6.040;2023-03-22T01:26:00;100674.91;;;9.92;100.00
14089;BME280;7120;52.890;6.040;2023-03-22T01:28:27;100681.00;;;9.89;100.00
14089;BME280;7120;52.890;6.040;2023-03-22T01:30:54;100675.84;;;10.01;100.00
14089;BME280;7120;52.890;6.040;2023-03-22T01:33:19;100672.38;;;9.82;100.00
14089;BME280;7120;52.890;6.040;2023-03-22T01:35:45;100670.75;;;9.81;100.00
14089;BME280;7120;52.890;6.040;2023-03-22T01:38:10;100662.25;;;9.82;100.00
14089;BME280;7120;52.890;6.040;2023-03-22T01:40:37;100661.06;;;9.88;100.00
14089;BME280;7120;52.890;6.040;2023-03-22T01:43:02;100651.91;;;9.79;100.00
14089;BME280;7120;52.890;6.040;2023-03-22T01:45:46;100656.19;;;9.99;100.00
14089;BME280;7120;52.890;6.040;2023-03-22T01:48:41;100660.03;;;9.98;100.00
14089;BME280;7120;52.890;6.040;2023-03-22T01:51:14;100648.38;;;9.79;100.00
14089;BME280;7120;52.890;6.040;2023-03-22T01:53:46;100655.47;;;9.94;100.00
14089;BME280;7120;52.890;6.040;2023-03-22T01:56:12;100649.53;;;10.05;100.00
14089;BME280;7120;52.890;6.040;2023-03-22T01:58:38;100635.75;;;9.97;100.00
14089;BME280;7120;52.890;6.040;2023-03-22T02:01:06;100646.06;;;10.00;100.00
14089;BME280;7120;52.890;6.040;2023-03-22T02:06:11;100634.06;;;10.01;100.00
14089;BME280;7120;52.890;6.040;2023-03-22T02:08:37;100623.94;;;9.87;100.00
14089;BME280;7120;52.890;6.040;2023-03-22T02:11:05;100632.41;;;9.86;100.00
14089;BME280;7120;52.890;6.040;2023-03-22T02:24:18;100614.09;;;10.00;100.00
14089;BME280;7120;52.890;6.040;2023-03-22T02:32:39;100603.47;;;9.99;100.00
14089;BME280;7120;52.890;6.040;2023-03-22T02:44:22;100586.69;;;10.05;100.00
14089;BME280;7120;52.890;6.040;2023-03-22T02:46:59;100591.56;;;10.08;99.62
14089;BME280;7120;52.890;6.040;2023-03-22T02:49:40;100584.97;;;9.96;100.00
14089;BME280;7120;52.890;6.040;2023-03-22T02:52:17;100571.81;;;10.11;100.00
14089;BME280;7120;52.890;6.040;2023-03-22T02:57:24;100561.59;;;9.89;100.00
14089;BME280;7120;52.890;6.040;2023-03-22T02:59:53;100572.03;;;10.01;98.90
14089;BME280;7120;52.890;6.040;2023-03-22T03:02:20;100559.97;;;10.02;99.46
14089;BME280;7120;52.890;6.040;2023-03-22T03:04:48;100555.50;;;10.20;98.21
14089;BME280;7120;52.890;6.040;2023-03-22T03:07:18;100553.56;;;10.21;98.20
14089;BME280;7120;52.890;6.040;2023-03-22T03:09:46;100546.81;;;10.04;97.44
14089;BME280;7120;52.890;6.040;2023-03-22T03:12:24;100538.91;;;10.30;98.17
14089;BME280;7120;52.890;6.040;2023-03-22T03:14:50;100545.28;;;10.26;97.35
14089;BME280;7120;52.890;6.040;2023-03-22T03:17:44;100541.03;;;10.19;98.04
14089;BME280;7120;52.890;6.040;2023-03-22T03:20:42;100538.91;;;10.16;98.23
14089;BME280;7120;52.890;6.040;2023-03-22T03:23:29;100535.78;;;10.09;97.73
14089;BME280;7120;52.890;6.040;2023-03-22T03:26:11;100537.59;;;10.14;98.19
14089;BME280;7120;52.890;6.040;2023-03-22T03:29:01;100543.78;;;10.06;98.44
14089;BME280;7120;52.890;6.040;2023-03-22T03:34:26;100525.56;;;10.15;97.83
14089;BME280;7120;52.890;6.040;2023-03-22T03:36:57;100525.97;;;10.08;98.59
14089;BME280;7120;52.890;6.040;2023-03-22T03:39:25;100512.72;;;10.15;98.32
14089;BME280;7120;52.890;6.040;2023-03-22T03:41:55;100516.91;;;10.22;98.59
14089;BME280;7120;52.890;6.040;2023-03-22T03:44:21;100517.81;;;9.95;98.77
14089;BME280;7120;52.890;6.040;2023-03-22T03:46:47;100514.38;;;9.89;99.74
14089;BME280;7120;52.890;6.040;2023-03-22T03:49:14;100508.19;;;9.83;100.00
14089;BME280;7120;52.890;6.040;2023-03-22T03:51:46;100502.31;;;9.90;100.00
14089;BME280;7120;52.890;6.040;2023-03-22T03:54:12;100498.97;;;9.79;99.42
14089;BME280;7120;52.890;6.040;2023-03-22T03:56:38;100509.59;;;9.95;99.00
14089;BME280;7120;52.890;6.040;2023-03-22T03:59:03;100511.81;;;9.93;99.81
14089;BME280;7120;52.890;6.040;2023-03-22T04:01:28;100504.00;;;10.00;99.06
14089;BME280;7120;52.890;6.040;2023-03-22T04:03:54;100511.41;;;9.85;99.12
14089;BME280;7120;52.890;6.040;2023-03-22T04:06:20;100512.19;;;10.13;98.73
14089;BME280;7120;52.890;6.040;2023-03-22T04:08:45;100500.47;;;9.99;99.01
14089;BME280;7120;52.890;6.040;2023-03-22T04:11:11;100510.50;;;10.04;98.62
14089;BME280;7120;52.890;6.040;2023-03-22T04:13:36;100506.97;;;9.89;99.32
14089;BME280;7120;52.890;6.040;2023-03-22T04:16:01;100511.19;;;10.09;100.00
14089;BME280;7120;52.890;6.040;2023-03-22T04:18:27;100509.44;;;10.13;98.39
14089;BME280;7120;52.890;6.040;2023-03-22T04:20:54;100509.28;;;10.10;98.44
14089;BME280;7120;52.890;6.040;2023-03-22T04:23:21;100517.22;;;10.20;98.42
14089;BME280;7120;52.890;6.040;2023-03-22T04:25:47;100508.06;;;10.16;98.37
14089;BME280;7120;52.890;6.040;2023-03-22T04:28:14;100509.84;;;10.21;98.44
14089;BME280;7120;52.890;6.040;2023-03-22T04:30:40;100510.78;;;10.16;98.73
14089;BME280;7120;52.890;6.040;2023-03-22T04:33:05;100499.78;;;9.94;99.79
14089;BME280;7120;52.890;6.040;2023-03-22T04:35:32;100510.19;;;10.05;100.00
14089;BME280;7120;52.890;6.040;2023-03-22T04:37:58;100499.66;;;10.12;99.67
14089;BME280;7120;52.890;6.040;2023-03-22T04:40:25;100499.66;;;10.12;99.98
14089;BME280;7120;52.890;6.040;2023-03-22T04:42:52;100500.88;;;10.06;100.00
14089;BME280;7120;52.890;6.040;2023-03-22T04:45:21;100499.97;;;10.11;100.00
14089;BME280;7120;52.890;6.040;2023-03-22T04:47:47;100498.94;;;10.07;100.00
14089;BME280;7120;52.890;6.040;2023-03-22T04:50:12;100475.88;;;9.99;100.00
14089;BME280;7120;52.890;6.040;2023-03-22T04:52:38;100484.47;;;10.06;100.00
14089;BME280;7120;52.890;6.040;2023-03-22T04:55:03;100482.25;;;10.08;100.00
14089;BME280;7120;52.890;6.040;2023-03-22T04:57:29;100475.69;;;10.09;100.00
14089;BME280;7120;52.890;6.040;2023-03-22T04:59:54;100472.66;;;9.97;100.00
14089;BME280;7120;52.890;6.040;2023-03-22T05:02:20;100472.88;;;10.01;100.00
14089;BME280;7120;52.890;6.040;2023-03-22T05:04:45;100465.16;;;10.03;100.00
14089;BME280;7120;52.890;6.040;2023-03-22T05:07:10;100469.03;;;10.02;100.00
14089;BME280;7120;52.890;6.040;2023-03-22T05:09:36;100471.94;;;10.05;100.00
14089;BME280;7120;52.890;6.040;2023-03-22T05:12:01;100461.47;;;10.21;100.00
14089;BME280;7120;52.890;6.040;2023-03-22T05:14:27;100456.78;;;10.22;100.00
14089;BME280;7120;52.890;6.040;2023-03-22T05:16:52;100452.16;;;10.22;100.00
14089;BME280;7120;52.890;6.040;2023-03-22T05:19:18;100450.16;;;10.14;100.00
14089;BME280;7120;52.890;6.040;2023-03-22T05:21:46;100448.91;;;10.20;100.00
14089;BME280;7120;52.890;6.040;2023-03-22T05:24:12;100429.47;;;10.22;100.00
14089;BME280;7120;52.890;6.040;2023-03-22T05:26:37;100444.66;;;10.28;100.00
14089;BME280;7120;52.890;6.040;2023-03-22T05:29:07;100440.41;;;10.22;100.00
14089;BME280;7120;52.890;6.040;2023-03-22T05:31:34;100438.72;;;10.26;100.00
14089;BME280;7120;52.890;6.040;2023-03-22T05:33:59;100427.50;;;10.36;100.00
14089;BME280;7120;52.890;6.040;2023-03-22T05:36:26;100435.22;;;10.34;100.00
14089;BME280;7120;52.890;6.040;2023-03-22T05:38:54;100430.56;;;10.34;100.00
14089;BME280;7120;52.890;6.040;2023-03-22T05:41:20;100432.75;;;10.46;100.00
14089;BME280;7120;52.890;6.040;2023-03-22T05:43:45;100434.41;;;10.33;100.00
14089;BME280;7120;52.890;6.040;2023-03-22T05:46:11;100425.91;;;10.35;100.00
14089;BME280;7120;52.890;6.040;2023-03-22T05:48:37;100414.75;;;10.23;100.00
14089;BME280;7120;52.890;6.040;2023-03-22T05:51:12;100419.72;;;10.43;100.00
14089;BME280;7120;52.890;6.040;2023-03-22T05:53:42;100426.91;;;10.39;100.00
14089;BME280;7120;52.890;6.040;2023-03-22T05:56:08;100415.97;;;10.39;100.00
14089;BME280;7120;52.890;6.040;2023-03-22T05:58:34;100414.16;;;10.57;100.00
14089;BME280;7120;52.890;6.040;2023-03-22T06:01:07;100415.97;;;10.39;100.00
14089;BME280;7120;52.890;6.040;2023-03-22T06:03:34;100416.84;;;10.48;100.00
14089;BME280;7120;52.890;6.040;2023-03-22T06:06:00;100418.72;;;10.70;100.00
14089;BME280;7120;52.890;6.040;2023-03-22T06:08:25;100420.97;;;10.68;100.00
14089;BME280;7120;52.890;6.040;2023-03-22T06:10:51;100410.94;;;10.55;100.00
14089;BME280;7120;52.890;6.040;2023-03-22T06:13:18;100403.97;;;10.49;100.00
14089;BME280;7120;52.890;6.040;2023-03-22T06:15:44;100396.44;;;10.54;100.00
14089;BME280;7120;52.890;6.040;2023-03-22T06:18:10;100401.31;;;10.57;100.00
14089;BME280;7120;52.890;6.040;2023-03-22T06:20:36;100392.63;;;10.64;100.00
14089;BME280;7120;52.890;6.040;2023-03-22T06:23:03;100382.47;;;10.56;100.00
14089;BME280;7120;52.890;6.040;2023-03-22T06:25:28;100402.56;;;10.82;100.00
14089;BME280;7120;52.890;6.040;2023-03-22T06:27:53;100393.31;;;10.69;100.00
14089;BME280;7120;52.890;6.040;2023-03-22T06:30:19;100389.28;;;10.98;100.00
14089;BME280;7120;52.890;6.040;2023-03-22T06:32:45;100392.88;;;10.76;100.00
14089;BME280;7120;52.890;6.040;2023-03-22T06:35:10;100395.03;;;10.88;100.00
14089;BME280;7120;52.890;6.040;2023-03-22T06:37:35;100400.38;;;10.93;100.00
14089;BME280;7120;52.890;6.040;2023-03-22T06:40:01;100385.91;;;11.01;100.00
14089;BME280;7120;52.890;6.040;2023-03-22T06:42:26;100391.75;;;11.17;100.00
14089;BME280;7120;52.890;6.040;2023-03-22T06:44:55;100401.56;;;11.09;100.00
14089;BME280;7120;52.890;6.040;2023-03-22T06:47:20;100387.78;;;11.32;100.00
14089;BME280;7120;52.890;6.040;2023-03-22T06:49:45;100391.91;;;11.20;98.99
14089;BME280;7120;52.890;6.040;2023-03-22T06:52:11;100389.53;;;11.27;98.80
14089;BME280;7120;52.890;6.040;2023-03-22T06:54:36;100395.06;;;11.45;98.32
14089;BME280;7120;52.890;6.040;2023-03-22T06:57:02;100401.44;;;11.14;98.98
14089;BME280;7120;52.890;6.040;2023-03-22T06:59:27;100402.03;;;11.11;99.11
14089;BME280;7120;52.890;6.040;2023-03-22T07:01:52;100399.28;;;11.03;99.35
14089;BME280;7120;52.890;6.040;2023-03-22T07:04:18;100386.06;;;11.05;98.36
14089;BME280;7120;52.890;6.040;2023-03-22T07:06:44;100380.59;;;11.05;98.79
14089;BME280;7120;52.890;6.040;2023-03-22T07:09:09;100394.19;;;11.18;98.61
14089;BME280;7120;52.890;6.040;2023-03-22T07:11:35;100389.47;;;11.10;97.79
14089;BME280;7120;52.890;6.040;2023-03-22T07:14:00;100402.22;;;11.15;97.78
14089;BME280;7120;52.890;6.040;2023-03-22T07:16:25;100400.00;;;11.25;97.78
14089;BME280;7120;52.890;6.040;2023-03-22T07:18:51;100391.75;;;11.17;97.60
14089;BME280;7120;52.890;6.040;2023-03-22T07:21:16;100385.75;;;11.06;98.14
14089;BME280;7120;52.890;6.040;2023-03-22T07:23:41;100403.19;;;11.19;97.90
14089;BME280;7120;52.890;6.040;2023-03-22T07:26:07;100382.25;;;11.14;96.42
14089;BME280;7120;52.890;6.040;2023-03-22T07:28:32;100390.38;;;11.28;95.33
14089;BME280;7120;52.890;6.040;2023-03-22T07:31:03;100376.81;;;11.23;96.57
14089;BME280;7120;52.890;6.040;2023-03-22T07:33:29;100370.03;;;11.20;97.66
14089;BME280;7120;52.890;6.040;2023-03-22T07:35:55;100386.38;;;11.43;94.97
14089;BME280;7120;52.890;6.040;2023-03-22T07:38:20;100377.19;;;11.47;96.29
14089;BME280;7120;52.890;6.040;2023-03-22T07:40:46;100370.56;;;11.48;94.72
14089;BME280;7120;52.890;6.040;2023-03-22T07:43:11;100382.50;;;11.44;95.36
14089;BME280;7120;52.890;6.040;2023-03-22T07:45:37;100396.53;;;11.51;94.44
14089;BME280;7120;52.890;6.040;2023-03-22T07:48:03;100394.75;;;11.46;95.19
14089;BME280;7120;52.890;6.040;2023-03-22T07:50:29;100401.00;;;11.38;95.06
14089;BME280;7120;52.890;6.040;2023-03-22T07:52:54;100390.97;;;11.25;95.27
14089;BME280;7120;52.890;6.040;2023-03-22T07:55:19;100405.47;;;11.25;97.10
14089;BME280;7120;52.890;6.040;2023-03-22T07:57:45;100392.59;;;11.26;95.25
14089;BME280;7120;52.890;6.040;2023-03-22T08:00:10;100387.66;;;11.45;94.38
14089;BME280;7120;52.890;6.040;2023-03-22T08:02:36;100390.97;;;11.25;95.12
14089;BME280;7120;52.890;6.040;2023-03-22T08:05:03;100381.69;;;11.43;95.60
14089;BME280;7120;52.890;6.040;2023-03-22T08:07:29;100352.72;;;11.68;94.63
14089;BME280;7120;52.890;6.040;2023-03-22T08:09:55;100358.25;;;11.86;92.46
14089;BME280;7120;52.890;6.040;2023-03-22T08:12:21;100358.72;;;11.88;91.00
14089;BME280;7120;52.890;6.040;2023-03-22T08:14:46;100363.38;;;11.78;92.10
14089;BME280;7120;52.890;6.040;2023-03-22T08:17:15;100359.00;;;11.60;91.83
14089;BME280;7120;52.890;6.040;2023-03-22T08:19:41;100373.56;;;11.87;91.77
14089;BME280;7120;52.890;6.040;2023-03-22T08:22:06;100361.25;;;12.36;89.87
14089;BME280;7120;52.890;6.040;2023-03-22T08:24:32;100346.00;;;12.00;88.37
14089;BME280;7120;52.890;6.040;2023-03-22T08:26:57;100359.34;;;12.28;89.69
14089;BME280;7120;52.890;6.040;2023-03-22T08:29:23;100362.91;;;12.20;88.79
14089;BME280;7120;52.890;6.040;2023-03-22T08:31:49;100350.91;;;12.50;86.27
14089;BME280;7120;52.890;6.040;2023-03-22T08:34:15;100365.41;;;13.06;83.22
14089;BME280;7120;52.890;6.040;2023-03-22T08:36:40;100366.88;;;13.04;84.01
14089;BME280;7120;52.890;6.040;2023-03-22T08:39:06;100369.03;;;12.81;83.89
14089;BME280;7120;52.890;6.040;2023-03-22T08:41:33;100373.16;;;13.04;83.85
14089;BME280;7120;52.890;6.040;2023-03-22T08:43:58;100371.81;;;13.10;83.80
14089;BME280;7120;52.890;6.040;2023-03-22T08:46:23;100375.91;;;12.96;85.02
14089;BME280;7120;52.890;6.040;2023-03-22T08:48:49;100362.47;;;12.64;85.76
14089;BME280;7120;52.890;6.040;2023-03-22T08:51:16;100365.41;;;13.06;85.03
14089;BME280;7120;52.890;6.040;2023-03-22T08:53:42;100372.81;;;12.59;84.87
14089;BME280;7120;52.890;6.040;2023-03-22T08:56:07;100366.13;;;12.22;86.90
14089;BME280;7120;52.890;6.040;2023-03-22T08:58:33;100349.97;;;12.37;85.90
14089;BME280;7120;52.890;6.040;2023-03-22T09:01:00;100360.94;;;12.37;87.63
14089;BME280;7120;52.890;6.040;2023-03-22T09:03:25;100351.75;;;12.25;87.86
14089;BME280;7120;52.890;6.040;2023-03-22T09:05:50;100360.88;;;12.63;85.50
14089;BME280;7120;52.890;6.040;2023-03-22T09:08:16;100345.00;;;12.22;86.98
14089;BME280;7120;52.890;6.040;2023-03-22T09:10:41;100354.88;;;12.06;87.91
14089;BME280;7120;52.890;6.040;2023-03-22T09:13:08;100345.91;;;12.44;87.13
14089;BME280;7120;52.890;6.040;2023-03-22T09:15:33;100347.72;;;12.31;87.72
14089;BME280;7120;52.890;6.040;2023-03-22T09:17:58;100356.78;;;12.14;90.30
14089;BME280;7120;52.890;6.040;2023-03-22T09:20:24;100351.94;;;12.11;88.50
14089;BME280;7120;52.890;6.040;2023-03-22T09:22:50;100366.31;;;12.08;89.32
14089;BME280;7120;52.890;6.040;2023-03-22T09:25:16;100360.97;;;12.20;90.26
14089;BME280;7120;52.890;6.040;2023-03-22T09:27:41;100358.25;;;11.86;91.62
14089;BME280;7120;52.890;6.040;2023-03-22T09:30:07;100365.16;;;11.83;94.04
14089;BME280;7120;52.890;6.040;2023-03-22T09:32:32;100360.47;;;11.58;93.60
14089;BME280;7120;52.890;6.040;2023-03-22T09:34:58;100357.34;;;11.33;94.87
14089;BME280;7120;52.890;6.040;2023-03-22T09:37:24;100370.69;;;11.26;96.71
14089;BME280;7120;52.890;6.040;2023-03-22T09:39:55;100372.41;;;11.13;99.47
14089;BME280;7120;52.890;6.040;2023-03-22T09:42:43;100367.94;;;11.17;100.00
14089;BME280;7120;52.890;6.040;2023-03-22T09:45:14;100374.75;;;10.89;100.00
14089;BME280;7120;52.890;6.040;2023-03-22T09:47:45;100376.38;;;10.59;100.00
14089;BME280;7120;52.890;6.040;2023-03-22T09:50:23;100374.56;;;10.85;100.00
14089;BME280;7120;52.890;6.040;2023-03-22T09:52:49;100380.56;;;10.87;100.00
14089;BME280;7120;52.890;6.040;2023-03-22T09:55:29;100385.19;;;10.56;100.00
14089;BME280;7120;52.890;6.040;2023-03-22T09:58:23;100353.84;;;10.53;100.00
14089;BME280;7120;52.890;6.040;2023-03-22T10:00:52;100371.25;;;10.57;100.00
14089;BME280;7120;52.890;6.040;2023-03-22T10:06:04;100371.75;;;10.37;100.00
14089;BME280;7120;52.890;6.040;2023-03-22T10:17:25;100370.34;;;10.48;100.00
14089;BME280;7120;52.890;6.040;2023-03-22T10:22:34;100368.59;;;10.43;100.00
14089;BME280;7120;52.890;6.040;2023-03-22T10:25:01;100364.38;;;10.37;100.00
14089;BME280;7120;52.890;6.040;2023-03-22T10:27:28;100367.38;;;10.36;100.00
14089;BME280;7120;52.890;6.040;2023-03-22T10:29:58;100376.97;;;10.25;100.00
14089;BME280;7120;52.890;6.040;2023-03-22T10:32:32;100371.88;;;10.32;100.00
14089;BME280;7120;52.890;6.040;2023-03-22T10:35:01;100374.06;;;10.43;100.00
14089;BME280;7120;52.890;6.040;2023-03-22T10:37:31;100363.34;;;10.33;100.00
14089;BME280;7120;52.890;6.040;2023-03-22T10:39:59;100373.41;;;10.47;100.00
14089;BME280;7120;52.890;6.040;2023-03-22T10:42:34;100380.31;;;10.44;100.00
14089;BME280;7120;52.890;6.040;2023-03-22T10:45:04;100382.91;;;10.71;100.00
14089;BME280;7120;52.890;6.040;2023-03-22T10:50:02;100381.94;;;10.45;100.00
14089;BME280;7120;52.890;6.040;2023-03-22T10:52:46;100382.91;;;10.49;100.00
14089;BME280;7120;52.890;6.040;2023-03-22T10:55:15;100369.88;;;10.46;100.00
14089;BME280;7120;52.890;6.040;2023-03-22T10:57:45;100382.84;;;10.40;100.00
14089;BME280;7120;52.890;6.040;2023-03-22T11:00:15;100382.09;;;10.49;100.00
14089;BME280;7120;52.890;6.040;2023-03-22T11:02:52;100395.09;;;10.65;100.00
14089;BME280;7120;52.890;6.040;2023-03-22T11:05:27;100382.81;;;10.63;100.00
14089;BME280;7120;52.890;6.040;2023-03-22T11:07:53;100379.66;;;10.69;100.00
14089;BME280;7120;52.890;6.040;2023-03-22T11:12:50;100366.13;;;10.64;100.00
14089;BME280;7120;52.890;6.040;2023-03-22T11:15:40;100371.53;;;10.56;100.00
14089;BME280;7120;52.890;6.040;2023-03-22T11:18:09;100360.81;;;10.68;100.00
14089;BME280;7120;52.890;6.040;2023-03-22T11:20:39;100364.50;;;10.63;100.00
14089;BME280;7120;52.890;6.040;2023-03-22T11:23:06;100360.81;;;10.68;100.00
14089;BME280;7120;52.890;6.040;2023-03-22T11:25:43;100359.38;;;11.10;100.00
14089;BME280;7120;52.890;6.040;2023-03-22T11:28:20;100368.50;;;10.97;100.00
14089;BME280;7120;52.890;6.040;2023-03-22T11:33:26;100356.31;;;11.12;100.00
14089;BME280;7120;52.890;6.040;2023-03-22T11:35:59;100369.31;;;10.97;100.00
14089;BME280;7120;52.890;6.040;2023-03-22T11:38:43;100360.19;;;11.11;100.00
14089;BME280;7120;52.890;6.040;2023-03-22T11:41:27;100351.59;;;10.95;100.00
14089;BME280;7120;52.890;6.040;2023-03-22T11:44:02;100373.25;;;11.14;100.00
14089;BME280;7120;52.890;6.040;2023-03-22T11:46:29;100365.34;;;11.12;100.00
14089;BME280;7120;52.890;6.040;2023-03-22T11:48:59;100368.59;;;11.14;100.00
14089;BME280;7120;52.890;6.040;2023-03-22T11:51:31;100370.81;;;11.12;100.00
14089;BME280;7120;52.890;6.040;2023-03-22T11:54:28;100356.00;;;11.13;100.00
14089;BME280;7120;52.890;6.040;2023-03-22T11:56:57;100383.09;;;11.32;100.00
14089;BME280;7120;52.890;6.040;2023-03-22T11:59:36;100384.91;;;11.37;100.00
14089;BME280;7120;52.890;6.040;2023-03-22T12:02:21;100379.69;;;11.18;100.00
14089;BME280;7120;52.890;6.040;2023-03-22T12:04:50;100378.66;;;11.05;100.00
14089;BME280;7120;52.890;6.040;2023-03-22T12:07:19;100389.47;;;11.10;100.00
14089;BME280;7120;52.890;6.040;2023-03-22T12:09:55;100399.78;;;11.13;100.00
14089;BME280;7120;52.890;6.040;2023-03-22T12:12:28;100410.94;;;11.25;100.00
14089;BME280;7120;52.890;6.040;2023-03-22T12:15:09;100392.28;;;10.88;100.00
14089;BME280;7120;52.890;6.040;2023-03-22T12:17:41;100401.22;;;11.02;100.00
14089;BME280;7120;52.890;6.040;2023-03-22T12:20:20;100399.56;;;10.92;100.00
14089;BME280;7120;52.890;6.040;2023-03-22T12:22:52;100392.00;;;10.98;100.00
14089;BME280;7120;52.890;6.040;2023-03-22T12:25:22;100400.50;;;10.88;100.00
14089;BME280;7120;52.890;6.040;2023-03-22T12:27:53;100394.69;;;10.81;100.00
14089;BME280;7120;52.890;6.040;2023-03-22T12:30:26;100401.44;;;10.83;100.00
14089;BME280;7120;52.890;6.040;2023-03-22T12:35:25;100409.78;;;10.78;100.00
14089;BME280;7120;52.890;6.040;2023-03-22T12:37:55;100407.50;;;10.71;100.00
14089;BME280;7120;52.890;6.040;2023-03-22T12:40:27;100401.13;;;10.85;100.00
14089;BME280;7120;52.890;6.040;2023-03-22T12:43:10;100403.50;;;10.78;100.00
14089;BME280;7120;52.890;6.040;2023-03-22T12:45:42;100404.53;;;10.90;100.00
14089;BME280;7120;52.890;6.040;2023-03-22T12:51:01;100383.78;;;10.58;100.00
14089;BME280;7120;52.890;6.040;2023-03-22T12:53:36;100403.00;;;10.76;100.00
14089;BME280;7120;52.890;6.040;2023-03-22T12:56:15;100394.56;;;10.63;100.00
14089;BME280;7120;52.890;6.040;2023-03-22T12:58:45;100398.91;;;10.87;100.00
14089;BME280;7120;52.890;6.040;2023-03-22T13:01:22;100394.56;;;10.63;100.00
14089;BME280;7120;52.890;6.040;2023-03-22T13:03:53;100399.34;;;10.80;100.00
14089;BME280;7120;52.890;6.040;2023-03-22T13:11:34;100410.28;;;10.80;100.00
14089;BME280;7120;52.890;6.040;2023-03-22T13:14:00;100406.91;;;10.83;100.00
14089;BME280;7120;52.890;6.040;2023-03-22T13:17:02;100392.97;;;10.62;100.00
14089;BME280;7120;52.890;6.040;2023-03-22T13:19:34;100398.44;;;10.62;100.00
14089;BME280;7120;52.890;6.040;2023-03-22T13:27:57;100404.78;;;10.49;100.00
14089;BME280;7120;52.890;6.040;2023-03-22T13:30:26;100408.16;;;10.46;100.00
14089;BME280;7120;52.890;6.040;2023-03-22T13:32:59;100410.31;;;10.58;100.00
14089;BME280;7120;52.890;6.040;2023-03-22T13:38:13;100412.75;;;10.37;100.00
14089;BME280;7120;52.890;6.040;2023-03-22T13:48:40;100394.13;;;10.70;100.00
14089;BME280;7120;52.890;6.040;2023-03-22T13:53:37;100397.41;;;10.81;100.00
14089;BME280;7120;52.890;6.040;2023-03-22T13:56:05;100388.84;;;10.73;100.00
14089;BME280;7120;52.890;6.040;2023-03-22T14:01:05;100401.53;;;10.69;100.00
14089;BME280;7120;52.890;6.040;2023-03-22T14:03:39;100398.94;;;10.64;100.00
14089;BME280;7120;52.890;6.040;2023-03-22T14:06:19;100403.25;;;10.88;100.00
14089;BME280;7120;52.890;6.040;2023-03-22T14:08:49;100395.44;;;10.72;100.00
14089;BME280;7120;52.890;6.040;2023-03-22T14:11:18;100400.69;;;10.60;100.00
14089;BME280;7120;52.890;6.040;2023-03-22T14:13:48;100387.38;;;10.67;100.00
14089;BME280;7120;52.890;6.040;2023-03-22T14:16:39;100382.06;;;10.71;100.00
14089;BME280;7120;52.890;6.040;2023-03-22T14:19:06;100391.25;;;10.75;100.00
14089;BME280;7120;52.890;6.040;2023-03-22T14:21:37;100385.13;;;10.69;100.00
14089;BME280;7120;52.890;6.040;2023-03-22T14:24:04;100378.31;;;10.58;100.00
14089;BME280;7120;52.890;6.040;2023-03-22T14:26:36;100381.91;;;10.67;100.00
14089;BME280;7120;52.890;6.040;2023-03-22T14:29:15;100375.66;;;10.76;100.00
14089;BME280;7120;52.890;6.040;2023-03-22T14:31:43;100372.44;;;10.73;100.00